GMD weather

Ben Slimane Airport
Ben Slimane, Casablanca Province, Morocco

Public forecast

Using degrees Celsius for public forecast. Weather courtesy of forecast.io.

Current aviation weather report (METAR) for Ben Slimane Airport

Report is more than 6 hours old.

Retrieved 2019/09/13 10:00 UTC (1 month ago):

GMMB 131000Z 36006KT 310V040 CAVOK 26/12 Q1017 NOSIG

Closest aviation forecast (TAF) to Ben Slimane Airport

Closest forecast is Mohammed V International Airport, 25.3 nm (46.8 km) SW. Retrieved 2019/10/15 18:18 UTC (2 hours ago):

TAF GMMN 151700Z 1518/1624 36013KT 9999 SCT016 BECMG 1520/1523 VRB02KT 5000 BKN016 PROB40 TEMPO 1600/1608 3000 BR BKN005 FM161000 02008KT CAVOK TEMPO 1612/1618 36015KT BECMG 1619/1621 SCT016